sensor_id;sensor_type;location;lat;lon;timestamp;P1;durP1;ratioP1;P2;durP2;ratioP2
40373;SDS011;26079;45.958;12.492;2022-11-20T00:00:57;11.93;;;7.80;;
40373;SDS011;26079;45.958;12.492;2022-11-20T00:03:28;23.05;;;9.55;;
40373;SDS011;26079;45.958;12.492;2022-11-20T00:05:54;21.92;;;11.38;;
40373;SDS011;26079;45.958;12.492;2022-11-20T00:08:25;23.15;;;8.68;;
40373;SDS011;26079;45.958;12.492;2022-11-20T00:10:50;12.63;;;8.25;;
40373;SDS011;26079;45.958;12.492;2022-11-20T00:13:16;11.13;;;6.80;;
40373;SDS011;26079;45.958;12.492;2022-11-20T00:15:42;14.38;;;7.15;;
40373;SDS011;26079;45.958;12.492;2022-11-20T00:18:07;21.67;;;7.88;;
40373;SDS011;26079;45.958;12.492;2022-11-20T00:20:33;9.82;;;6.80;;
40373;SDS011;26079;45.958;12.492;2022-11-20T00:22:59;10.93;;;6.28;;
40373;SDS011;26079;45.958;12.492;2022-11-20T00:25:24;8.43;;;5.40;;
40373;SDS011;26079;45.958;12.492;2022-11-20T00:27:50;5.95;;;3.92;;
40373;SDS011;26079;45.958;12.492;2022-11-20T00:30:16;8.02;;;3.72;;
40373;SDS011;26079;45.958;12.492;2022-11-20T00:32:41;3.30;;;3.00;;
40373;SDS011;26079;45.958;12.492;2022-11-20T00:35:09;4.18;;;3.33;;
40373;SDS011;26079;45.958;12.492;2022-11-20T00:37:37;4.25;;;3.65;;
40373;SDS011;26079;45.958;12.492;2022-11-20T00:40:03;4.47;;;3.58;;
40373;SDS011;26079;45.958;12.492;2022-11-20T00:42:29;4.18;;;3.75;;
40373;SDS011;26079;45.958;12.492;2022-11-20T00:44:57;5.07;;;3.05;;
40373;SDS011;26079;45.958;12.492;2022-11-20T00:47:23;3.53;;;3.22;;
40373;SDS011;26079;45.958;12.492;2022-11-20T00:49:48;4.22;;;2.95;;
40373;SDS011;26079;45.958;12.492;2022-11-20T00:52:14;5.35;;;2.85;;
40373;SDS011;26079;45.958;12.492;2022-11-20T00:54:40;4.03;;;3.45;;
40373;SDS011;26079;45.958;12.492;2022-11-20T00:57:05;4.22;;;2.92;;
40373;SDS011;26079;45.958;12.492;2022-11-20T00:59:31;4.00;;;3.50;;
40373;SDS011;26079;45.958;12.492;2022-11-20T01:01:56;4.53;;;3.58;;
40373;SDS011;26079;45.958;12.492;2022-11-20T01:04:22;4.88;;;3.30;;
40373;SDS011;26079;45.958;12.492;2022-11-20T01:06:48;3.85;;;3.13;;
40373;SDS011;26079;45.958;12.492;2022-11-20T01:09:14;6.82;;;4.18;;
40373;SDS011;26079;45.958;12.492;2022-11-20T01:11:41;4.72;;;3.33;;
40373;SDS011;26079;45.958;12.492;2022-11-20T01:14:09;6.50;;;4.80;;
40373;SDS011;26079;45.958;12.492;2022-11-20T01:16:38;7.55;;;4.50;;
40373;SDS011;26079;45.958;12.492;2022-11-20T01:19:07;8.25;;;5.10;;
40373;SDS011;26079;45.958;12.492;2022-11-20T01:21:38;6.80;;;4.25;;
40373;SDS011;26079;45.958;12.492;2022-11-20T01:24:05;6.53;;;5.28;;
40373;SDS011;26079;45.958;12.492;2022-11-20T01:26:33;8.88;;;6.28;;
40373;SDS011;26079;45.958;12.492;2022-11-20T01:29:02;10.05;;;6.95;;
40373;SDS011;26079;45.958;12.492;2022-11-20T01:31:31;6.07;;;5.10;;
40373;SDS011;26079;45.958;12.492;2022-11-20T01:33:59;5.75;;;4.70;;
40373;SDS011;26079;45.958;12.492;2022-11-20T01:36:28;7.88;;;5.20;;
40373;SDS011;26079;45.958;12.492;2022-11-20T01:38:56;8.55;;;5.38;;
40373;SDS011;26079;45.958;12.492;2022-11-20T01:41:23;8.73;;;5.60;;
40373;SDS011;26079;45.958;12.492;2022-11-20T01:44:12;6.07;;;4.28;;
40373;SDS011;26079;45.958;12.492;2022-11-20T01:46:42;7.32;;;4.82;;
40373;SDS011;26079;45.958;12.492;2022-11-20T01:49:38;6.57;;;5.65;;
40373;SDS011;26079;45.958;12.492;2022-11-20T01:52:20;6.30;;;5.18;;
40373;SDS011;26079;45.958;12.492;2022-11-20T01:55:03;8.38;;;5.35;;
40373;SDS011;26079;45.958;12.492;2022-11-20T01:57:50;9.48;;;5.07;;
40373;SDS011;26079;45.958;12.492;2022-11-20T02:00:17;5.65;;;4.90;;
40373;SDS011;26079;45.958;12.492;2022-11-20T02:02:46;7.72;;;6.05;;
40373;SDS011;26079;45.958;12.492;2022-11-20T02:08:03;7.03;;;5.07;;
40373;SDS011;26079;45.958;12.492;2022-11-20T02:10:30;7.45;;;5.35;;
40373;SDS011;26079;45.958;12.492;2022-11-20T02:12:57;8.48;;;6.38;;
40373;SDS011;26079;45.958;12.492;2022-11-20T02:16:02;10.68;;;5.82;;
40373;SDS011;26079;45.958;12.492;2022-11-20T02:18:29;7.05;;;5.38;;
40373;SDS011;26079;45.958;12.492;2022-11-20T02:26:18;6.97;;;5.30;;
40373;SDS011;26079;45.958;12.492;2022-11-20T02:28:47;5.63;;;4.78;;
40373;SDS011;26079;45.958;12.492;2022-11-20T02:31:12;13.30;;;5.93;;
40373;SDS011;26079;45.958;12.492;2022-11-20T02:33:38;6.97;;;4.85;;
40373;SDS011;26079;45.958;12.492;2022-11-20T02:36:04;7.93;;;5.18;;
40373;SDS011;26079;45.958;12.492;2022-11-20T02:38:29;7.43;;;5.03;;
40373;SDS011;26079;45.958;12.492;2022-11-20T02:40:55;7.80;;;5.32;;
40373;SDS011;26079;45.958;12.492;2022-11-20T02:43:22;9.98;;;5.13;;
40373;SDS011;26079;45.958;12.492;2022-11-20T02:45:48;8.35;;;5.95;;
40373;SDS011;26079;45.958;12.492;2022-11-20T02:48:14;6.50;;;5.10;;
40373;SDS011;26079;45.958;12.492;2022-11-20T02:50:40;6.60;;;5.18;;
40373;SDS011;26079;45.958;12.492;2022-11-20T02:53:06;9.40;;;5.25;;
40373;SDS011;26079;45.958;12.492;2022-11-20T02:55:32;13.30;;;7.68;;
40373;SDS011;26079;45.958;12.492;2022-11-20T02:57:57;10.77;;;6.53;;
40373;SDS011;26079;45.958;12.492;2022-11-20T03:00:23;7.95;;;5.75;;
40373;SDS011;26079;45.958;12.492;2022-11-20T03:02:48;7.28;;;5.45;;
40373;SDS011;26079;45.958;12.492;2022-11-20T03:05:14;6.25;;;5.65;;
40373;SDS011;26079;45.958;12.492;2022-11-20T03:07:40;6.00;;;4.90;;
40373;SDS011;26079;45.958;12.492;2022-11-20T03:10:06;6.45;;;5.18;;
40373;SDS011;26079;45.958;12.492;2022-11-20T03:12:32;10.43;;;5.38;;
40373;SDS011;26079;45.958;12.492;2022-11-20T03:14:58;6.85;;;5.45;;
40373;SDS011;26079;45.958;12.492;2022-11-20T03:17:23;6.35;;;4.70;;
40373;SDS011;26079;45.958;12.492;2022-11-20T03:19:49;6.80;;;5.03;;
40373;SDS011;26079;45.958;12.492;2022-11-20T03:22:15;5.22;;;4.72;;
40373;SDS011;26079;45.958;12.492;2022-11-20T03:24:40;5.22;;;4.32;;
40373;SDS011;26079;45.958;12.492;2022-11-20T03:27:06;9.65;;;4.68;;
40373;SDS011;26079;45.958;12.492;2022-11-20T03:29:31;7.45;;;5.57;;
40373;SDS011;26079;45.958;12.492;2022-11-20T03:31:57;5.45;;;3.60;;
40373;SDS011;26079;45.958;12.492;2022-11-20T03:34:23;7.35;;;4.38;;
40373;SDS011;26079;45.958;12.492;2022-11-20T03:36:49;5.70;;;4.60;;
40373;SDS011;26079;45.958;12.492;2022-11-20T03:39:14;4.93;;;4.43;;
40373;SDS011;26079;45.958;12.492;2022-11-20T03:41:40;4.82;;;4.00;;
40373;SDS011;26079;45.958;12.492;2022-11-20T03:44:07;5.30;;;4.10;;
40373;SDS011;26079;45.958;12.492;2022-11-20T03:46:34;7.75;;;4.13;;
40373;SDS011;26079;45.958;12.492;2022-11-20T03:49:00;4.18;;;3.30;;
40373;SDS011;26079;45.958;12.492;2022-11-20T03:51:30;4.47;;;3.55;;
40373;SDS011;26079;45.958;12.492;2022-11-20T03:53:58;4.22;;;3.63;;
40373;SDS011;26079;45.958;12.492;2022-11-20T03:56:26;5.70;;;4.20;;
40373;SDS011;26079;45.958;12.492;2022-11-20T03:58:57;5.28;;;3.80;;
40373;SDS011;26079;45.958;12.492;2022-11-20T04:01:31;6.50;;;5.15;;
40373;SDS011;26079;45.958;12.492;2022-11-20T04:04:01;5.55;;;4.00;;
40373;SDS011;26079;45.958;12.492;2022-11-20T04:06:29;5.82;;;4.30;;
40373;SDS011;26079;45.958;12.492;2022-11-20T04:08:57;9.85;;;4.40;;
40373;SDS011;26079;45.958;12.492;2022-11-20T04:11:27;10.68;;;6.80;;
40373;SDS011;26079;45.958;12.492;2022-11-20T04:13:55;12.65;;;7.45;;
40373;SDS011;26079;45.958;12.492;2022-11-20T04:16:23;9.43;;;5.30;;
40373;SDS011;26079;45.958;12.492;2022-11-20T04:18:53;10.10;;;5.40;;
40373;SDS011;26079;45.958;12.492;2022-11-20T04:21:21;10.35;;;6.90;;
40373;SDS011;26079;45.958;12.492;2022-11-20T04:23:47;8.20;;;5.22;;
40373;SDS011;26079;45.958;12.492;2022-11-20T04:26:13;6.07;;;5.03;;
40373;SDS011;26079;45.958;12.492;2022-11-20T04:28:40;18.48;;;6.22;;
40373;SDS011;26079;45.958;12.492;2022-11-20T04:31:10;7.28;;;5.30;;
40373;SDS011;26079;45.958;12.492;2022-11-20T04:33:40;8.23;;;6.25;;
40373;SDS011;26079;45.958;12.492;2022-11-20T04:36:07;4.82;;;3.80;;
40373;SDS011;26079;45.958;12.492;2022-11-20T04:38:37;5.65;;;3.55;;
40373;SDS011;26079;45.958;12.492;2022-11-20T04:41:04;4.13;;;3.60;;
40373;SDS011;26079;45.958;12.492;2022-11-20T04:43:33;4.13;;;3.17;;
40373;SDS011;26079;45.958;12.492;2022-11-20T04:45:59;4.97;;;3.30;;
40373;SDS011;26079;45.958;12.492;2022-11-20T04:48:26;5.68;;;3.90;;
40373;SDS011;26079;45.958;12.492;2022-11-20T04:50:52;4.38;;;3.97;;
40373;SDS011;26079;45.958;12.492;2022-11-20T04:53:19;5.65;;;3.58;;
40373;SDS011;26079;45.958;12.492;2022-11-20T04:55:45;5.57;;;3.70;;
40373;SDS011;26079;45.958;12.492;2022-11-20T04:58:11;4.90;;;4.10;;
40373;SDS011;26079;45.958;12.492;2022-11-20T05:00:37;7.47;;;5.68;;
40373;SDS011;26079;45.958;12.492;2022-11-20T05:03:03;10.43;;;6.55;;
40373;SDS011;26079;45.958;12.492;2022-11-20T05:05:29;9.60;;;5.38;;
40373;SDS011;26079;45.958;12.492;2022-11-20T05:07:57;6.68;;;4.90;;
40373;SDS011;26079;45.958;12.492;2022-11-20T05:10:26;6.63;;;4.63;;
40373;SDS011;26079;45.958;12.492;2022-11-20T05:12:52;4.68;;;4.03;;
40373;SDS011;26079;45.958;12.492;2022-11-20T05:15:18;6.63;;;4.20;;
40373;SDS011;26079;45.958;12.492;2022-11-20T05:17:51;4.25;;;3.60;;
40373;SDS011;26079;45.958;12.492;2022-11-20T05:20:17;8.83;;;4.27;;
40373;SDS011;26079;45.958;12.492;2022-11-20T05:22:43;3.22;;;2.92;;
40373;SDS011;26079;45.958;12.492;2022-11-20T05:25:10;4.97;;;3.70;;
40373;SDS011;26079;45.958;12.492;2022-11-20T05:27:36;5.22;;;3.42;;
40373;SDS011;26079;45.958;12.492;2022-11-20T05:30:02;3.65;;;3.05;;
40373;SDS011;26079;45.958;12.492;2022-11-20T05:32:28;3.75;;;3.45;;
40373;SDS011;26079;45.958;12.492;2022-11-20T05:34:54;6.57;;;3.55;;
40373;SDS011;26079;45.958;12.492;2022-11-20T05:37:20;12.85;;;7.60;;
40373;SDS011;26079;45.958;12.492;2022-11-20T05:39:45;8.60;;;6.10;;
40373;SDS011;26079;45.958;12.492;2022-11-20T05:42:11;15.13;;;8.80;;
40373;SDS011;26079;45.958;12.492;2022-11-20T05:44:55;45.97;;;18.30;;
40373;SDS011;26079;45.958;12.492;2022-11-20T05:47:25;79.82;;;33.17;;
40373;SDS011;26079;45.958;12.492;2022-11-20T05:49:52;28.10;;;17.25;;
40373;SDS011;26079;45.958;12.492;2022-11-20T05:52:18;4.38;;;3.88;;
40373;SDS011;26079;45.958;12.492;2022-11-20T05:54:44;7.65;;;2.30;;
40373;SDS011;26079;45.958;12.492;2022-11-20T05:57:10;4.13;;;3.03;;
40373;SDS011;26079;45.958;12.492;2022-11-20T05:59:36;5.88;;;4.10;;
40373;SDS011;26079;45.958;12.492;2022-11-20T06:02:01;3.85;;;3.42;;
40373;SDS011;26079;45.958;12.492;2022-11-20T06:04:27;5.53;;;3.38;;
40373;SDS011;26079;45.958;12.492;2022-11-20T06:06:53;3.88;;;3.53;;
40373;SDS011;26079;45.958;12.492;2022-11-20T06:09:18;4.63;;;3.95;;
40373;SDS011;26079;45.958;12.492;2022-11-20T06:11:44;4.75;;;3.63;;
40373;SDS011;26079;45.958;12.492;2022-11-20T06:14:09;5.10;;;4.35;;
40373;SDS011;26079;45.958;12.492;2022-11-20T06:16:35;5.40;;;4.35;;
40373;SDS011;26079;45.958;12.492;2022-11-20T06:19:01;4.45;;;3.75;;
40373;SDS011;26079;45.958;12.492;2022-11-20T06:21:27;4.80;;;3.95;;
40373;SDS011;26079;45.958;12.492;2022-11-20T06:23:52;6.88;;;5.38;;
40373;SDS011;26079;45.958;12.492;2022-11-20T06:26:20;6.05;;;4.82;;
40373;SDS011;26079;45.958;12.492;2022-11-20T06:28:47;4.28;;;3.83;;
40373;SDS011;26079;45.958;12.492;2022-11-20T06:31:14;4.30;;;3.75;;
40373;SDS011;26079;45.958;12.492;2022-11-20T06:33:41;5.00;;;3.67;;
40373;SDS011;26079;45.958;12.492;2022-11-20T06:36:09;4.68;;;4.13;;
40373;SDS011;26079;45.958;12.492;2022-11-20T06:38:35;6.32;;;4.63;;
40373;SDS011;26079;45.958;12.492;2022-11-20T06:41:01;7.57;;;4.20;;
40373;SDS011;26079;45.958;12.492;2022-11-20T06:43:29;7.40;;;4.22;;
40373;SDS011;26079;45.958;12.492;2022-11-20T06:45:55;4.53;;;3.97;;
40373;SDS011;26079;45.958;12.492;2022-11-20T06:48:22;5.97;;;4.82;;
40373;SDS011;26079;45.958;12.492;2022-11-20T06:50:49;6.57;;;5.07;;
40373;SDS011;26079;45.958;12.492;2022-11-20T06:53:14;8.85;;;6.28;;
40373;SDS011;26079;45.958;12.492;2022-11-20T06:55:44;11.93;;;7.63;;
40373;SDS011;26079;45.958;12.492;2022-11-20T06:58:10;11.88;;;7.93;;
40373;SDS011;26079;45.958;12.492;2022-11-20T07:00:37;12.95;;;9.55;;
40373;SDS011;26079;45.958;12.492;2022-11-20T07:03:06;10.90;;;9.43;;
40373;SDS011;26079;45.958;12.492;2022-11-20T07:05:33;11.38;;;9.65;;
40373;SDS011;26079;45.958;12.492;2022-11-20T07:07:59;24.25;;;13.45;;
40373;SDS011;26079;45.958;12.492;2022-11-20T07:10:25;11.13;;;7.20;;
40373;SDS011;26079;45.958;12.492;2022-11-20T07:12:51;10.48;;;7.47;;
40373;SDS011;26079;45.958;12.492;2022-11-20T07:15:18;7.30;;;6.45;;
40373;SDS011;26079;45.958;12.492;2022-11-20T07:17:45;7.38;;;5.93;;
40373;SDS011;26079;45.958;12.492;2022-11-20T07:20:11;9.68;;;6.15;;
40373;SDS011;26079;45.958;12.492;2022-11-20T07:22:37;9.85;;;6.22;;
40373;SDS011;26079;45.958;12.492;2022-11-20T07:25:03;6.90;;;5.72;;
40373;SDS011;26079;45.958;12.492;2022-11-20T07:27:29;7.28;;;6.13;;
40373;SDS011;26079;45.958;12.492;2022-11-20T07:29:55;10.77;;;8.55;;
40373;SDS011;26079;45.958;12.492;2022-11-20T07:32:21;22.58;;;14.88;;
40373;SDS011;26079;45.958;12.492;2022-11-20T07:34:47;23.88;;;15.27;;
40373;SDS011;26079;45.958;12.492;2022-11-20T07:37:13;23.00;;;16.15;;
40373;SDS011;26079;45.958;12.492;2022-11-20T07:39:39;21.48;;;14.73;;
40373;SDS011;26079;45.958;12.492;2022-11-20T07:42:08;49.20;;;31.92;;
40373;SDS011;26079;45.958;12.492;2022-11-20T07:44:34;23.88;;;17.45;;
40373;SDS011;26079;45.958;12.492;2022-11-20T07:47:00;13.02;;;9.88;;
40373;SDS011;26079;45.958;12.492;2022-11-20T07:49:26;12.13;;;9.63;;
40373;SDS011;26079;45.958;12.492;2022-11-20T07:51:52;10.75;;;9.65;;
40373;SDS011;26079;45.958;12.492;2022-11-20T07:54:21;7.20;;;6.13;;
40373;SDS011;26079;45.958;12.492;2022-11-20T07:56:48;11.52;;;6.15;;
40373;SDS011;26079;45.958;12.492;2022-11-20T07:59:14;5.97;;;5.25;;
40373;SDS011;26079;45.958;12.492;2022-11-20T08:01:40;5.90;;;5.30;;
40373;SDS011;26079;45.958;12.492;2022-11-20T08:04:07;6.32;;;5.22;;
40373;SDS011;26079;45.958;12.492;2022-11-20T08:06:33;6.13;;;5.50;;
40373;SDS011;26079;45.958;12.492;2022-11-20T08:08:58;7.30;;;5.78;;
40373;SDS011;26079;45.958;12.492;2022-11-20T08:11:24;11.50;;;8.07;;
40373;SDS011;26079;45.958;12.492;2022-11-20T08:14:08;13.73;;;10.32;;
40373;SDS011;26079;45.958;12.492;2022-11-20T08:16:40;12.98;;;10.00;;
40373;SDS011;26079;45.958;12.492;2022-11-20T08:19:11;12.45;;;8.50;;
40373;SDS011;26079;45.958;12.492;2022-11-20T08:21:38;8.60;;;7.68;;
40373;SDS011;26079;45.958;12.492;2022-11-20T08:24:04;10.90;;;7.38;;
40373;SDS011;26079;45.958;12.492;2022-11-20T08:26:30;7.22;;;6.13;;
40373;SDS011;26079;45.958;12.492;2022-11-20T08:28:56;5.60;;;5.07;;
40373;SDS011;26079;45.958;12.492;2022-11-20T08:31:26;8.95;;;5.45;;
40373;SDS011;26079;45.958;12.492;2022-11-20T08:34:12;8.65;;;5.10;;
40373;SDS011;26079;45.958;12.492;2022-11-20T08:36:38;8.48;;;5.78;;
40373;SDS011;26079;45.958;12.492;2022-11-20T08:39:04;9.60;;;8.63;;
40373;SDS011;26079;45.958;12.492;2022-11-20T08:41:29;5.40;;;4.90;;
40373;SDS011;26079;45.958;12.492;2022-11-20T08:43:59;8.35;;;5.80;;
40373;SDS011;26079;45.958;12.492;2022-11-20T08:46:48;5.18;;;4.68;;
40373;SDS011;26079;45.958;12.492;2022-11-20T08:49:13;5.25;;;4.47;;
40373;SDS011;26079;45.958;12.492;2022-11-20T08:51:39;6.10;;;5.15;;
40373;SDS011;26079;45.958;12.492;2022-11-20T08:54:06;5.93;;;5.30;;
40373;SDS011;26079;45.958;12.492;2022-11-20T08:56:32;10.23;;;4.90;;
40373;SDS011;26079;45.958;12.492;2022-11-20T08:59:06;6.63;;;3.97;;
40373;SDS011;26079;45.958;12.492;2022-11-20T09:01:32;4.88;;;4.20;;
40373;SDS011;26079;45.958;12.492;2022-11-20T09:03:57;4.80;;;4.28;;
40373;SDS011;26079;45.958;12.492;2022-11-20T09:06:24;5.90;;;4.63;;
40373;SDS011;26079;45.958;12.492;2022-11-20T09:08:53;6.28;;;5.68;;
40373;SDS011;26079;45.958;12.492;2022-11-20T09:11:19;7.03;;;5.30;;
40373;SDS011;26079;45.958;12.492;2022-11-20T09:13:45;10.80;;;6.50;;
40373;SDS011;26079;45.958;12.492;2022-11-20T09:16:14;6.60;;;4.88;;
40373;SDS011;26079;45.958;12.492;2022-11-20T09:18:40;5.55;;;4.60;;
40373;SDS011;26079;45.958;12.492;2022-11-20T09:21:08;6.25;;;5.07;;
40373;SDS011;26079;45.958;12.492;2022-11-20T09:23:35;6.20;;;4.93;;
40373;SDS011;26079;45.958;12.492;2022-11-20T09:26:06;7.90;;;7.05;;
40373;SDS011;26079;45.958;12.492;2022-11-20T09:28:36;6.20;;;4.85;;
40373;SDS011;26079;45.958;12.492;2022-11-20T09:31:06;5.53;;;4.75;;
40373;SDS011;26079;45.958;12.492;2022-11-20T09:33:50;8.98;;;4.50;;
40373;SDS011;26079;45.958;12.492;2022-11-20T09:36:16;6.05;;;4.50;;
40373;SDS011;26079;45.958;12.492;2022-11-20T09:38:45;5.13;;;3.80;;
40373;SDS011;26079;45.958;12.492;2022-11-20T09:46:48;5.43;;;3.53;;
40373;SDS011;26079;45.958;12.492;2022-11-20T09:55:11;3.42;;;2.65;;
40373;SDS011;26079;45.958;12.492;2022-11-20T09:57:40;12.82;;;4.35;;
40373;SDS011;26079;45.958;12.492;2022-11-20T10:00:12;5.22;;;3.28;;
40373;SDS011;26079;45.958;12.492;2022-11-20T10:05:12;2.45;;;2.15;;
40373;SDS011;26079;45.958;12.492;2022-11-20T10:08:28;3.25;;;2.65;;
40373;SDS011;26079;45.958;12.492;2022-11-20T10:17:02;3.95;;;2.75;;
40373;SDS011;26079;45.958;12.492;2022-11-20T10:19:40;3.38;;;3.05;;
40373;SDS011;26079;45.958;12.492;2022-11-20T10:25:11;3.45;;;3.10;;
40373;SDS011;26079;45.958;12.492;2022-11-20T10:30:40;3.60;;;2.75;;
40373;SDS011;26079;45.958;12.492;2022-11-20T10:35:52;3.35;;;2.70;;
40373;SDS011;26079;45.958;12.492;2022-11-20T10:38:39;3.90;;;2.65;;
40373;SDS011;26079;45.958;12.492;2022-11-20T10:41:12;3.78;;;2.85;;
40373;SDS011;26079;45.958;12.492;2022-11-20T10:43:50;4.05;;;2.67;;
40373;SDS011;26079;45.958;12.492;2022-11-20T10:46:20;2.42;;;2.10;;
40373;SDS011;26079;45.958;12.492;2022-11-20T10:48:47;3.50;;;2.20;;
40373;SDS011;26079;45.958;12.492;2022-11-20T10:54:41;27.52;;;3.08;;
40373;SDS011;26079;45.958;12.492;2022-11-20T10:57:20;6.00;;;2.30;;
40373;SDS011;26079;45.958;12.492;2022-11-20T11:00:09;3.33;;;2.90;;
40373;SDS011;26079;45.958;12.492;2022-11-20T11:02:42;5.63;;;2.70;;
40373;SDS011;26079;45.958;12.492;2022-11-20T11:05:21;3.63;;;2.80;;
40373;SDS011;26079;45.958;12.492;2022-11-20T11:07:54;2.80;;;2.35;;
40373;SDS011;26079;45.958;12.492;2022-11-20T11:10:22;2.70;;;2.42;;
40373;SDS011;26079;45.958;12.492;2022-11-20T11:12:53;4.45;;;3.67;;
40373;SDS011;26079;45.958;12.492;2022-11-20T11:18:25;72.72;;;36.17;;
40373;SDS011;26079;45.958;12.492;2022-11-20T11:20:57;23.35;;;11.45;;
40373;SDS011;26079;45.958;12.492;2022-11-20T11:26:05;7.13;;;4.55;;
40373;SDS011;26079;45.958;12.492;2022-11-20T11:28:42;3.67;;;2.45;;
40373;SDS011;26079;45.958;12.492;2022-11-20T11:31:23;3.03;;;2.72;;
40373;SDS011;26079;45.958;12.492;2022-11-20T11:34:03;2.40;;;2.20;;
40373;SDS011;26079;45.958;12.492;2022-11-20T11:36:33;2.38;;;2.00;;
40373;SDS011;26079;45.958;12.492;2022-11-20T11:39:00;2.72;;;2.10;;
40373;SDS011;26079;45.958;12.492;2022-11-20T11:41:31;3.30;;;2.05;;
40373;SDS011;26079;45.958;12.492;2022-11-20T11:44:21;3.42;;;2.88;;
40373;SDS011;26079;45.958;12.492;2022-11-20T11:47:09;2.38;;;2.00;;
40373;SDS011;26079;45.958;12.492;2022-11-20T11:49:43;2.17;;;1.40;;
40373;SDS011;26079;45.958;12.492;2022-11-20T11:52:15;1.73;;;1.48;;
40373;SDS011;26079;45.958;12.492;2022-11-20T12:05:08;2.10;;;1.90;;
40373;SDS011;26079;45.958;12.492;2022-11-20T12:13:46;2.85;;;1.85;;
40373;SDS011;26079;45.958;12.492;2022-11-20T12:16:28;1.67;;;1.30;;
40373;SDS011;26079;45.958;12.492;2022-11-20T12:19:02;2.80;;;2.55;;
40373;SDS011;26079;45.958;12.492;2022-11-20T12:21:46;3.88;;;2.13;;
40373;SDS011;26079;45.958;12.492;2022-11-20T12:40:28;5.53;;;1.70;;
40373;SDS011;26079;45.958;12.492;2022-11-20T12:51:27;3.28;;;1.88;;
40373;SDS011;26079;45.958;12.492;2022-11-20T13:07:41;3.33;;;1.75;;
40373;SDS011;26079;45.958;12.492;2022-11-20T13:13:23;2.30;;;1.83;;
40373;SDS011;26079;45.958;12.492;2022-11-20T13:16:12;3.03;;;1.73;;
40373;SDS011;26079;45.958;12.492;2022-11-20T13:18:44;1.58;;;1.15;;
40373;SDS011;26079;45.958;12.492;2022-11-20T13:29:42;3.45;;;1.63;;
40373;SDS011;26079;45.958;12.492;2022-11-20T13:37:36;2.90;;;1.65;;
40373;SDS011;26079;45.958;12.492;2022-11-20T13:42:43;1.30;;;1.17;;
40373;SDS011;26079;45.958;12.492;2022-11-20T13:45:11;3.50;;;1.35;;
40373;SDS011;26079;45.958;12.492;2022-11-20T13:47:51;2.63;;;1.27;;
40373;SDS011;26079;45.958;12.492;2022-11-20T13:50:18;4.13;;;1.85;;
40373;SDS011;26079;45.958;12.492;2022-11-20T14:00:30;4.60;;;2.92;;
40373;SDS011;26079;45.958;12.492;2022-11-20T14:05:33;2.67;;;2.15;;
40373;SDS011;26079;45.958;12.492;2022-11-20T14:08:23;2.85;;;2.38;;
40373;SDS011;26079;45.958;12.492;2022-11-20T14:14:18;3.75;;;2.83;;
40373;SDS011;26079;45.958;12.492;2022-11-20T14:16:40;8.07;;;5.72;;
40373;SDS011;26079;45.958;12.492;2022-11-20T14:19:22;4.13;;;3.70;;
40373;SDS011;26079;45.958;12.492;2022-11-20T14:21:52;4.00;;;2.95;;
40373;SDS011;26079;45.958;12.492;2022-11-20T14:24:23;2.53;;;2.33;;
40373;SDS011;26079;45.958;12.492;2022-11-20T14:26:49;3.58;;;3.00;;
40373;SDS011;26079;45.958;12.492;2022-11-20T14:29:17;3.70;;;2.72;;
40373;SDS011;26079;45.958;12.492;2022-11-20T14:31:45;3.15;;;2.30;;
40373;SDS011;26079;45.958;12.492;2022-11-20T14:34:17;3.58;;;2.92;;
40373;SDS011;26079;45.958;12.492;2022-11-20T14:36:45;4.60;;;2.67;;
40373;SDS011;26079;45.958;12.492;2022-11-20T14:39:12;3.78;;;2.92;;
40373;SDS011;26079;45.958;12.492;2022-11-20T14:41:52;3.80;;;2.70;;
40373;SDS011;26079;45.958;12.492;2022-11-20T14:44:19;2.72;;;2.53;;
40373;SDS011;26079;45.958;12.492;2022-11-20T14:46:48;3.35;;;3.03;;
40373;SDS011;26079;45.958;12.492;2022-11-20T14:49:15;3.22;;;2.88;;
40373;SDS011;26079;45.958;12.492;2022-11-20T14:51:41;6.25;;;3.60;;
40373;SDS011;26079;45.958;12.492;2022-11-20T14:54:07;5.38;;;3.83;;
40373;SDS011;26079;45.958;12.492;2022-11-20T14:56:39;5.55;;;3.25;;
40373;SDS011;26079;45.958;12.492;2022-11-20T14:59:04;5.35;;;3.80;;
40373;SDS011;26079;45.958;12.492;2022-11-20T15:01:31;5.70;;;4.32;;
40373;SDS011;26079;45.958;12.492;2022-11-20T15:06:26;6.28;;;5.10;;
40373;SDS011;26079;45.958;12.492;2022-11-20T15:08:52;5.53;;;4.45;;
40373;SDS011;26079;45.958;12.492;2022-11-20T15:11:20;4.78;;;3.70;;
40373;SDS011;26079;45.958;12.492;2022-11-20T15:13:53;6.10;;;4.68;;
40373;SDS011;26079;45.958;12.492;2022-11-20T15:16:19;6.43;;;4.97;;
40373;SDS011;26079;45.958;12.492;2022-11-20T15:18:46;7.45;;;4.85;;
40373;SDS011;26079;45.958;12.492;2022-11-20T15:21:14;8.95;;;6.85;;
40373;SDS011;26079;45.958;12.492;2022-11-20T15:23:41;13.18;;;7.53;;
40373;SDS011;26079;45.958;12.492;2022-11-20T15:26:08;10.57;;;8.98;;
40373;SDS011;26079;45.958;12.492;2022-11-20T15:31:02;7.35;;;5.97;;
40373;SDS011;26079;45.958;12.492;2022-11-20T15:33:29;10.05;;;7.30;;
40373;SDS011;26079;45.958;12.492;2022-11-20T15:35:55;7.88;;;6.30;;
40373;SDS011;26079;45.958;12.492;2022-11-20T15:38:21;7.75;;;5.95;;
40373;SDS011;26079;45.958;12.492;2022-11-20T15:40:47;8.88;;;8.00;;
40373;SDS011;26079;45.958;12.492;2022-11-20T15:43:13;7.88;;;6.55;;
40373;SDS011;26079;45.958;12.492;2022-11-20T15:48:05;10.15;;;8.48;;
40373;SDS011;26079;45.958;12.492;2022-11-20T15:50:37;12.20;;;9.02;;
40373;SDS011;26079;45.958;12.492;2022-11-20T15:53:07;9.80;;;8.48;;
40373;SDS011;26079;45.958;12.492;2022-11-20T15:55:35;10.13;;;8.60;;
40373;SDS011;26079;45.958;12.492;2022-11-20T15:58:00;13.27;;;8.52;;
40373;SDS011;26079;45.958;12.492;2022-11-20T16:00:26;14.13;;;9.85;;
40373;SDS011;26079;45.958;12.492;2022-11-20T16:02:52;11.40;;;9.13;;
40373;SDS011;26079;45.958;12.492;2022-11-20T16:05:17;16.33;;;11.20;;
40373;SDS011;26079;45.958;12.492;2022-11-20T16:07:43;31.63;;;19.75;;
40373;SDS011;26079;45.958;12.492;2022-11-20T16:10:09;37.80;;;24.48;;
40373;SDS011;26079;45.958;12.492;2022-11-20T16:12:35;29.60;;;19.13;;
40373;SDS011;26079;45.958;12.492;2022-11-20T16:15:19;26.73;;;16.45;;
40373;SDS011;26079;45.958;12.492;2022-11-20T16:18:03;22.00;;;15.23;;
40373;SDS011;26079;45.958;12.492;2022-11-20T16:20:29;21.10;;;13.68;;
40373;SDS011;26079;45.958;12.492;2022-11-20T16:22:54;26.90;;;13.40;;
40373;SDS011;26079;45.958;12.492;2022-11-20T16:25:20;18.50;;;13.30;;
40373;SDS011;26079;45.958;12.492;2022-11-20T16:27:45;19.52;;;14.77;;
40373;SDS011;26079;45.958;12.492;2022-11-20T16:30:11;28.50;;;21.88;;
40373;SDS011;26079;45.958;12.492;2022-11-20T16:32:38;28.48;;;22.45;;
40373;SDS011;26079;45.958;12.492;2022-11-20T16:35:04;28.30;;;19.10;;
40373;SDS011;26079;45.958;12.492;2022-11-20T16:37:30;26.17;;;19.77;;
40373;SDS011;26079;45.958;12.492;2022-11-20T16:39:55;25.10;;;17.67;;
40373;SDS011;26079;45.958;12.492;2022-11-20T16:42:21;27.10;;;21.13;;
40373;SDS011;26079;45.958;12.492;2022-11-20T16:44:47;37.45;;;28.10;;
40373;SDS011;26079;45.958;12.492;2022-11-20T16:47:12;38.63;;;28.73;;
40373;SDS011;26079;45.958;12.492;2022-11-20T16:49:38;32.00;;;22.48;;
40373;SDS011;26079;45.958;12.492;2022-11-20T16:52:04;26.25;;;19.65;;
40373;SDS011;26079;45.958;12.492;2022-11-20T16:54:29;36.90;;;28.77;;
40373;SDS011;26079;45.958;12.492;2022-11-20T16:56:55;30.08;;;20.33;;
40373;SDS011;26079;45.958;12.492;2022-11-20T16:59:20;22.45;;;18.98;;
40373;SDS011;26079;45.958;12.492;2022-11-20T17:01:46;32.17;;;24.17;;